sensor_id;sensor_type;location;lat;lon;timestamp;temperature;humidity
9219;DHT22;4644;48.858;9.184;2023-07-28T00:00:28;16.80;99.90
9219;DHT22;4644;48.858;9.184;2023-07-28T00:02:55;16.80;99.90
9219;DHT22;4644;48.858;9.184;2023-07-28T00:05:22;16.70;99.90
9219;DHT22;4644;48.858;9.184;2023-07-28T00:07:49;16.70;99.90
9219;DHT22;4644;48.858;9.184;2023-07-28T00:10:16;16.80;99.90
9219;DHT22;4644;48.858;9.184;2023-07-28T00:12:43;16.80;99.90
9219;DHT22;4644;48.858;9.184;2023-07-28T00:15:09;16.80;99.90
9219;DHT22;4644;48.858;9.184;2023-07-28T00:17:38;16.80;99.90
9219;DHT22;4644;48.858;9.184;2023-07-28T00:20:05;16.80;99.90
9219;DHT22;4644;48.858;9.184;2023-07-28T00:22:33;16.80;99.90
9219;DHT22;4644;48.858;9.184;2023-07-28T00:25:00;16.80;99.90
9219;DHT22;4644;48.858;9.184;2023-07-28T00:27:27;16.80;99.90
9219;DHT22;4644;48.858;9.184;2023-07-28T00:29:53;16.80;99.90
9219;DHT22;4644;48.858;9.184;2023-07-28T00:32:20;16.80;99.90
9219;DHT22;4644;48.858;9.184;2023-07-28T00:34:48;16.80;99.90
9219;DHT22;4644;48.858;9.184;2023-07-28T00:37:15;16.80;99.90
9219;DHT22;4644;48.858;9.184;2023-07-28T00:39:42;16.80;99.90
9219;DHT22;4644;48.858;9.184;2023-07-28T00:42:09;16.70;99.90
9219;DHT22;4644;48.858;9.184;2023-07-28T00:44:35;16.70;99.90
9219;DHT22;4644;48.858;9.184;2023-07-28T00:47:02;16.70;99.90
9219;DHT22;4644;48.858;9.184;2023-07-28T00:49:29;16.70;99.90
9219;DHT22;4644;48.858;9.184;2023-07-28T00:51:58;16.70;99.90
9219;DHT22;4644;48.858;9.184;2023-07-28T00:54:24;16.70;99.90
9219;DHT22;4644;48.858;9.184;2023-07-28T00:56:51;16.70;99.90
9219;DHT22;4644;48.858;9.184;2023-07-28T00:59:18;16.60;99.90
9219;DHT22;4644;48.858;9.184;2023-07-28T01:01:45;16.60;99.90
9219;DHT22;4644;48.858;9.184;2023-07-28T01:04:12;16.50;99.90
9219;DHT22;4644;48.858;9.184;2023-07-28T01:06:40;16.50;99.90
9219;DHT22;4644;48.858;9.184;2023-07-28T01:09:11;16.50;99.90
9219;DHT22;4644;48.858;9.184;2023-07-28T01:11:52;16.40;99.90
9219;DHT22;4644;48.858;9.184;2023-07-28T01:14:19;16.40;99.90
9219;DHT22;4644;48.858;9.184;2023-07-28T01:16:46;16.30;99.90
9219;DHT22;4644;48.858;9.184;2023-07-28T01:19:12;16.30;99.90
9219;DHT22;4644;48.858;9.184;2023-07-28T01:21:40;16.30;99.90
9219;DHT22;4644;48.858;9.184;2023-07-28T01:24:14;16.20;99.90
9219;DHT22;4644;48.858;9.184;2023-07-28T01:26:43;16.20;99.90
9219;DHT22;4644;48.858;9.184;2023-07-28T01:29:11;16.20;99.90
9219;DHT22;4644;48.858;9.184;2023-07-28T01:31:40;16.20;99.90
9219;DHT22;4644;48.858;9.184;2023-07-28T01:34:07;16.20;99.90
9219;DHT22;4644;48.858;9.184;2023-07-28T01:36:34;16.20;99.90
9219;DHT22;4644;48.858;9.184;2023-07-28T01:39:01;16.20;99.90
9219;DHT22;4644;48.858;9.184;2023-07-28T01:41:28;16.10;99.90
9219;DHT22;4644;48.858;9.184;2023-07-28T01:43:56;16.10;99.90
9219;DHT22;4644;48.858;9.184;2023-07-28T01:46:23;16.10;99.90
9219;DHT22;4644;48.858;9.184;2023-07-28T01:48:52;16.00;99.90
9219;DHT22;4644;48.858;9.184;2023-07-28T01:51:19;15.90;99.90
9219;DHT22;4644;48.858;9.184;2023-07-28T01:53:46;15.90;99.90
9219;DHT22;4644;48.858;9.184;2023-07-28T01:56:12;15.90;99.90
9219;DHT22;4644;48.858;9.184;2023-07-28T01:58:40;15.90;99.90
9219;DHT22;4644;48.858;9.184;2023-07-28T02:01:08;15.90;99.90
9219;DHT22;4644;48.858;9.184;2023-07-28T02:03:35;15.90;99.90
9219;DHT22;4644;48.858;9.184;2023-07-28T02:06:02;15.90;99.90
9219;DHT22;4644;48.858;9.184;2023-07-28T02:08:28;15.90;99.90
9219;DHT22;4644;48.858;9.184;2023-07-28T02:10:55;15.90;99.90
9219;DHT22;4644;48.858;9.184;2023-07-28T02:13:22;15.90;99.90
9219;DHT22;4644;48.858;9.184;2023-07-28T02:15:48;15.90;99.90
9219;DHT22;4644;48.858;9.184;2023-07-28T02:18:17;15.90;99.90
9219;DHT22;4644;48.858;9.184;2023-07-28T02:20:43;15.90;99.90
9219;DHT22;4644;48.858;9.184;2023-07-28T02:23:10;15.80;99.90
9219;DHT22;4644;48.858;9.184;2023-07-28T02:25:37;15.90;99.90
9219;DHT22;4644;48.858;9.184;2023-07-28T02:28:04;15.80;99.90
9219;DHT22;4644;48.858;9.184;2023-07-28T02:30:31;15.90;99.90
9219;DHT22;4644;48.858;9.184;2023-07-28T02:32:58;15.90;99.90
9219;DHT22;4644;48.858;9.184;2023-07-28T02:35:26;15.90;99.90
9219;DHT22;4644;48.858;9.184;2023-07-28T02:37:53;15.90;99.90
9219;DHT22;4644;48.858;9.184;2023-07-28T02:40:20;15.90;99.90
9219;DHT22;4644;48.858;9.184;2023-07-28T02:42:47;15.90;99.90
9219;DHT22;4644;48.858;9.184;2023-07-28T02:45:14;16.00;99.90
9219;DHT22;4644;48.858;9.184;2023-07-28T02:47:40;16.10;99.90
9219;DHT22;4644;48.858;9.184;2023-07-28T02:50:08;16.10;99.90
9219;DHT22;4644;48.858;9.184;2023-07-28T02:52:36;16.10;99.90
9219;DHT22;4644;48.858;9.184;2023-07-28T02:55:03;16.20;99.90
9219;DHT22;4644;48.858;9.184;2023-07-28T02:57:30;16.20;99.90
9219;DHT22;4644;48.858;9.184;2023-07-28T02:59:57;16.20;99.90
9219;DHT22;4644;48.858;9.184;2023-07-28T03:02:24;16.20;99.90
9219;DHT22;4644;48.858;9.184;2023-07-28T03:04:51;16.20;99.90
9219;DHT22;4644;48.858;9.184;2023-07-28T03:07:17;16.30;99.90
9219;DHT22;4644;48.858;9.184;2023-07-28T03:09:46;16.30;99.90
9219;DHT22;4644;48.858;9.184;2023-07-28T03:12:12;16.30;99.90
9219;DHT22;4644;48.858;9.184;2023-07-28T03:14:39;16.30;99.90
9219;DHT22;4644;48.858;9.184;2023-07-28T03:17:06;16.30;99.90
9219;DHT22;4644;48.858;9.184;2023-07-28T03:19:33;16.30;99.90
9219;DHT22;4644;48.858;9.184;2023-07-28T03:22:00;16.30;99.90
9219;DHT22;4644;48.858;9.184;2023-07-28T03:24:27;16.30;99.90
9219;DHT22;4644;48.858;9.184;2023-07-28T03:26:55;16.40;99.90
9219;DHT22;4644;48.858;9.184;2023-07-28T03:29:22;16.30;99.90
9219;DHT22;4644;48.858;9.184;2023-07-28T03:31:48;16.30;99.90
9219;DHT22;4644;48.858;9.184;2023-07-28T03:34:15;16.40;99.90
9219;DHT22;4644;48.858;9.184;2023-07-28T03:36:42;16.40;99.90
9219;DHT22;4644;48.858;9.184;2023-07-28T03:39:09;16.50;99.90
9219;DHT22;4644;48.858;9.184;2023-07-28T03:41:36;16.40;99.90
9219;DHT22;4644;48.858;9.184;2023-07-28T03:44:04;16.50;99.90
9219;DHT22;4644;48.858;9.184;2023-07-28T03:46:31;16.50;99.90
9219;DHT22;4644;48.858;9.184;2023-07-28T03:48:57;16.60;99.90
9219;DHT22;4644;48.858;9.184;2023-07-28T03:51:25;16.60;99.90
9219;DHT22;4644;48.858;9.184;2023-07-28T03:53:52;16.60;99.90
9219;DHT22;4644;48.858;9.184;2023-07-28T03:56:19;16.60;99.90
9219;DHT22;4644;48.858;9.184;2023-07-28T03:58:46;16.60;99.90
9219;DHT22;4644;48.858;9.184;2023-07-28T04:01:14;16.60;99.90
9219;DHT22;4644;48.858;9.184;2023-07-28T04:03:41;16.70;99.90
9219;DHT22;4644;48.858;9.184;2023-07-28T04:06:09;16.70;99.90
9219;DHT22;4644;48.858;9.184;2023-07-28T04:08:36;16.60;99.90
9219;DHT22;4644;48.858;9.184;2023-07-28T04:11:03;16.70;99.90
9219;DHT22;4644;48.858;9.184;2023-07-28T04:13:30;16.70;99.90
9219;DHT22;4644;48.858;9.184;2023-07-28T04:15:57;16.70;99.90
9219;DHT22;4644;48.858;9.184;2023-07-28T04:18:25;16.70;99.90
9219;DHT22;4644;48.858;9.184;2023-07-28T04:20:52;16.70;99.90
9219;DHT22;4644;48.858;9.184;2023-07-28T04:23:19;16.70;99.90
9219;DHT22;4644;48.858;9.184;2023-07-28T04:25:46;16.70;99.90
9219;DHT22;4644;48.858;9.184;2023-07-28T04:28:12;16.70;99.90
9219;DHT22;4644;48.858;9.184;2023-07-28T04:30:39;16.70;99.90
9219;DHT22;4644;48.858;9.184;2023-07-28T04:33:06;16.70;99.90
9219;DHT22;4644;48.858;9.184;2023-07-28T04:35:34;16.70;99.90
9219;DHT22;4644;48.858;9.184;2023-07-28T04:38:01;16.70;99.90
9219;DHT22;4644;48.858;9.184;2023-07-28T04:40:28;16.70;99.90
9219;DHT22;4644;48.858;9.184;2023-07-28T04:42:55;16.70;99.90
9219;DHT22;4644;48.858;9.184;2023-07-28T04:45:22;16.70;99.90
9219;DHT22;4644;48.858;9.184;2023-07-28T04:47:49;16.70;99.90
9219;DHT22;4644;48.858;9.184;2023-07-28T04:50:16;16.70;99.90
9219;DHT22;4644;48.858;9.184;2023-07-28T04:52:44;16.70;99.90
9219;DHT22;4644;48.858;9.184;2023-07-28T04:55:11;16.70;99.90
9219;DHT22;4644;48.858;9.184;2023-07-28T04:57:38;16.60;99.90
9219;DHT22;4644;48.858;9.184;2023-07-28T05:00:05;16.60;99.90
9219;DHT22;4644;48.858;9.184;2023-07-28T05:02:32;16.60;99.90
9219;DHT22;4644;48.858;9.184;2023-07-28T05:04:59;16.60;99.90
9219;DHT22;4644;48.858;9.184;2023-07-28T05:07:26;16.60;99.90
9219;DHT22;4644;48.858;9.184;2023-07-28T05:09:55;16.60;99.90
9219;DHT22;4644;48.858;9.184;2023-07-28T05:12:22;16.60;99.90
9219;DHT22;4644;48.858;9.184;2023-07-28T05:14:49;16.60;99.90
9219;DHT22;4644;48.858;9.184;2023-07-28T05:17:16;16.60;99.90
9219;DHT22;4644;48.858;9.184;2023-07-28T05:19:43;16.60;99.90
9219;DHT22;4644;48.858;9.184;2023-07-28T05:22:09;16.60;99.90
9219;DHT22;4644;48.858;9.184;2023-07-28T05:24:36;16.60;99.90
9219;DHT22;4644;48.858;9.184;2023-07-28T05:27:05;16.60;99.90
9219;DHT22;4644;48.858;9.184;2023-07-28T05:29:32;16.60;99.90
9219;DHT22;4644;48.858;9.184;2023-07-28T05:31:59;16.70;99.90
9219;DHT22;4644;48.858;9.184;2023-07-28T05:34:26;16.70;99.90
9219;DHT22;4644;48.858;9.184;2023-07-28T05:36:53;16.70;99.90
9219;DHT22;4644;48.858;9.184;2023-07-28T05:39:20;16.70;99.90
9219;DHT22;4644;48.858;9.184;2023-07-28T05:41:46;16.70;99.90
9219;DHT22;4644;48.858;9.184;2023-07-28T05:44:15;16.80;99.90
9219;DHT22;4644;48.858;9.184;2023-07-28T05:46:41;16.80;99.90
9219;DHT22;4644;48.858;9.184;2023-07-28T05:49:08;16.80;99.90
9219;DHT22;4644;48.858;9.184;2023-07-28T05:51:35;16.80;99.90
9219;DHT22;4644;48.858;9.184;2023-07-28T05:54:02;16.90;99.90
9219;DHT22;4644;48.858;9.184;2023-07-28T05:56:29;16.90;99.90
9219;DHT22;4644;48.858;9.184;2023-07-28T05:58:56;16.90;99.90
9219;DHT22;4644;48.858;9.184;2023-07-28T06:01:24;16.90;99.90
9219;DHT22;4644;48.858;9.184;2023-07-28T06:03:52;16.90;99.90
9219;DHT22;4644;48.858;9.184;2023-07-28T06:06:24;16.90;99.90
9219;DHT22;4644;48.858;9.184;2023-07-28T06:08:51;17.00;99.90
9219;DHT22;4644;48.858;9.184;2023-07-28T06:11:18;17.00;99.90
9219;DHT22;4644;48.858;9.184;2023-07-28T06:13:45;16.90;99.90
9219;DHT22;4644;48.858;9.184;2023-07-28T06:16:12;17.00;99.90
9219;DHT22;4644;48.858;9.184;2023-07-28T06:18:40;17.00;99.90
9219;DHT22;4644;48.858;9.184;2023-07-28T06:21:07;17.10;99.90
9219;DHT22;4644;48.858;9.184;2023-07-28T06:23:34;17.10;99.90
9219;DHT22;4644;48.858;9.184;2023-07-28T06:26:00;17.10;99.90
9219;DHT22;4644;48.858;9.184;2023-07-28T06:28:27;17.10;99.90
9219;DHT22;4644;48.858;9.184;2023-07-28T06:30:54;17.10;99.90
9219;DHT22;4644;48.858;9.184;2023-07-28T06:33:21;17.20;99.90
9219;DHT22;4644;48.858;9.184;2023-07-28T06:35:49;17.20;99.90
9219;DHT22;4644;48.858;9.184;2023-07-28T06:38:17;17.20;99.90
9219;DHT22;4644;48.858;9.184;2023-07-28T06:40:44;17.20;99.90
9219;DHT22;4644;48.858;9.184;2023-07-28T06:43:11;17.30;99.90
9219;DHT22;4644;48.858;9.184;2023-07-28T06:45:38;17.30;99.90
9219;DHT22;4644;48.858;9.184;2023-07-28T06:48:05;17.40;99.90
9219;DHT22;4644;48.858;9.184;2023-07-28T06:50:32;17.40;99.90
9219;DHT22;4644;48.858;9.184;2023-07-28T06:53:00;17.40;99.90
9219;DHT22;4644;48.858;9.184;2023-07-28T06:55:27;17.50;99.90
9219;DHT22;4644;48.858;9.184;2023-07-28T06:57:54;17.60;99.90
9219;DHT22;4644;48.858;9.184;2023-07-28T07:00:21;17.70;99.90
9219;DHT22;4644;48.858;9.184;2023-07-28T07:02:48;17.70;99.90
9219;DHT22;4644;48.858;9.184;2023-07-28T07:05:15;17.80;99.90
9219;DHT22;4644;48.858;9.184;2023-07-28T07:07:42;17.90;99.90
9219;DHT22;4644;48.858;9.184;2023-07-28T07:10:10;18.00;99.90
9219;DHT22;4644;48.858;9.184;2023-07-28T07:12:37;18.10;99.90
9219;DHT22;4644;48.858;9.184;2023-07-28T07:15:06;18.20;99.90
9219;DHT22;4644;48.858;9.184;2023-07-28T07:17:33;18.30;99.90
9219;DHT22;4644;48.858;9.184;2023-07-28T07:20:00;18.40;99.90
9219;DHT22;4644;48.858;9.184;2023-07-28T07:22:27;18.40;99.90
9219;DHT22;4644;48.858;9.184;2023-07-28T07:24:55;18.40;99.90
9219;DHT22;4644;48.858;9.184;2023-07-28T07:27:25;18.50;99.90
9219;DHT22;4644;48.858;9.184;2023-07-28T07:29:51;18.50;99.90
9219;DHT22;4644;48.858;9.184;2023-07-28T07:32:18;18.50;99.90
9219;DHT22;4644;48.858;9.184;2023-07-28T07:34:45;18.60;99.90
9219;DHT22;4644;48.858;9.184;2023-07-28T07:37:12;18.60;99.90
9219;DHT22;4644;48.858;9.184;2023-07-28T07:39:39;18.70;99.90
9219;DHT22;4644;48.858;9.184;2023-07-28T07:42:09;18.90;99.90
9219;DHT22;4644;48.858;9.184;2023-07-28T07:44:37;19.00;99.90
9219;DHT22;4644;48.858;9.184;2023-07-28T07:47:11;19.30;99.90
9219;DHT22;4644;48.858;9.184;2023-07-28T07:49:38;19.30;99.90
9219;DHT22;4644;48.858;9.184;2023-07-28T07:52:06;19.40;99.90
9219;DHT22;4644;48.858;9.184;2023-07-28T07:54:33;19.40;99.90
9219;DHT22;4644;48.858;9.184;2023-07-28T07:57:00;19.50;99.90
9219;DHT22;4644;48.858;9.184;2023-07-28T07:59:27;19.50;99.90
9219;DHT22;4644;48.858;9.184;2023-07-28T08:01:57;19.50;99.90
9219;DHT22;4644;48.858;9.184;2023-07-28T08:04:25;19.50;99.90
9219;DHT22;4644;48.858;9.184;2023-07-28T08:06:53;19.50;99.90
9219;DHT22;4644;48.858;9.184;2023-07-28T08:09:20;19.50;99.90
9219;DHT22;4644;48.858;9.184;2023-07-28T08:11:47;19.50;99.90
9219;DHT22;4644;48.858;9.184;2023-07-28T08:14:14;19.50;99.90
9219;DHT22;4644;48.858;9.184;2023-07-28T08:16:41;19.50;99.90
9219;DHT22;4644;48.858;9.184;2023-07-28T08:19:09;19.50;99.90
9219;DHT22;4644;48.858;9.184;2023-07-28T08:21:36;19.50;99.90
9219;DHT22;4644;48.858;9.184;2023-07-28T08:24:03;19.60;99.90
9219;DHT22;4644;48.858;9.184;2023-07-28T08:26:30;19.60;99.90
9219;DHT22;4644;48.858;9.184;2023-07-28T08:28:57;19.70;99.90
9219;DHT22;4644;48.858;9.184;2023-07-28T08:31:24;19.70;99.90
9219;DHT22;4644;48.858;9.184;2023-07-28T08:33:51;19.70;99.90
9219;DHT22;4644;48.858;9.184;2023-07-28T08:36:19;19.70;99.90
9219;DHT22;4644;48.858;9.184;2023-07-28T08:38:46;19.70;99.90
9219;DHT22;4644;48.858;9.184;2023-07-28T08:41:14;19.80;99.90
9219;DHT22;4644;48.858;9.184;2023-07-28T08:43:41;19.80;99.90
9219;DHT22;4644;48.858;9.184;2023-07-28T08:46:08;19.80;99.90
9219;DHT22;4644;48.858;9.184;2023-07-28T08:48:35;19.70;99.90
9219;DHT22;4644;48.858;9.184;2023-07-28T08:51:02;19.60;99.90
9219;DHT22;4644;48.858;9.184;2023-07-28T08:53:31;19.50;99.90
9219;DHT22;4644;48.858;9.184;2023-07-28T08:55:58;19.50;99.90
9219;DHT22;4644;48.858;9.184;2023-07-28T08:58:25;19.50;99.90
9219;DHT22;4644;48.858;9.184;2023-07-28T09:00:52;19.40;99.90
9219;DHT22;4644;48.858;9.184;2023-07-28T09:03:19;19.40;99.90
9219;DHT22;4644;48.858;9.184;2023-07-28T09:05:46;19.40;99.90
9219;DHT22;4644;48.858;9.184;2023-07-28T09:08:13;19.30;99.90
9219;DHT22;4644;48.858;9.184;2023-07-28T09:10:42;19.30;99.90
9219;DHT22;4644;48.858;9.184;2023-07-28T09:13:09;19.40;99.90
9219;DHT22;4644;48.858;9.184;2023-07-28T09:15:37;19.60;99.90
9219;DHT22;4644;48.858;9.184;2023-07-28T09:18:06;19.70;99.90
9219;DHT22;4644;48.858;9.184;2023-07-28T09:20:34;19.90;99.90
9219;DHT22;4644;48.858;9.184;2023-07-28T09:23:01;20.00;99.90
9219;DHT22;4644;48.858;9.184;2023-07-28T09:25:28;20.20;99.90
9219;DHT22;4644;48.858;9.184;2023-07-28T09:27:57;20.20;99.90
9219;DHT22;4644;48.858;9.184;2023-07-28T09:30:24;20.20;99.90
9219;DHT22;4644;48.858;9.184;2023-07-28T09:32:52;20.30;99.90
9219;DHT22;4644;48.858;9.184;2023-07-28T09:35:20;20.20;99.90
9219;DHT22;4644;48.858;9.184;2023-07-28T09:37:47;20.20;99.90
9219;DHT22;4644;48.858;9.184;2023-07-28T09:40:16;20.30;99.90
9219;DHT22;4644;48.858;9.184;2023-07-28T09:42:44;20.40;99.90
9219;DHT22;4644;48.858;9.184;2023-07-28T09:45:16;20.70;99.90
9219;DHT22;4644;48.858;9.184;2023-07-28T09:47:43;20.70;99.90
9219;DHT22;4644;48.858;9.184;2023-07-28T09:50:10;20.70;99.90
9219;DHT22;4644;48.858;9.184;2023-07-28T09:52:42;20.80;99.90
9219;DHT22;4644;48.858;9.184;2023-07-28T09:55:10;20.80;99.90
9219;DHT22;4644;48.858;9.184;2023-07-28T09:57:41;20.70;99.90
9219;DHT22;4644;48.858;9.184;2023-07-28T10:00:11;20.80;99.90
9219;DHT22;4644;48.858;9.184;2023-07-28T10:02:39;20.90;99.90
9219;DHT22;4644;48.858;9.184;2023-07-28T10:05:07;20.90;99.90
9219;DHT22;4644;48.858;9.184;2023-07-28T10:07:36;21.00;99.90
9219;DHT22;4644;48.858;9.184;2023-07-28T10:10:03;20.90;99.90
9219;DHT22;4644;48.858;9.184;2023-07-28T10:12:39;20.90;99.90
9219;DHT22;4644;48.858;9.184;2023-07-28T10:15:07;20.90;99.90
9219;DHT22;4644;48.858;9.184;2023-07-28T10:17:34;21.00;99.90
9219;DHT22;4644;48.858;9.184;2023-07-28T10:20:04;21.00;99.90
9219;DHT22;4644;48.858;9.184;2023-07-28T10:22:39;20.90;99.90
9219;DHT22;4644;48.858;9.184;2023-07-28T10:25:09;20.80;99.90
9219;DHT22;4644;48.858;9.184;2023-07-28T10:27:37;20.70;99.90
9219;DHT22;4644;48.858;9.184;2023-07-28T10:30:07;20.70;99.90
9219;DHT22;4644;48.858;9.184;2023-07-28T10:32:37;20.70;99.90
9219;DHT22;4644;48.858;9.184;2023-07-28T10:35:22;20.60;99.90
9219;DHT22;4644;48.858;9.184;2023-07-28T10:37:49;20.50;99.90
9219;DHT22;4644;48.858;9.184;2023-07-28T10:40:22;20.50;99.90
9219;DHT22;4644;48.858;9.184;2023-07-28T10:42:50;20.50;99.90
9219;DHT22;4644;48.858;9.184;2023-07-28T10:45:17;20.50;99.90
9219;DHT22;4644;48.858;9.184;2023-07-28T10:47:45;20.60;99.90
9219;DHT22;4644;48.858;9.184;2023-07-28T10:50:14;20.70;99.90
9219;DHT22;4644;48.858;9.184;2023-07-28T10:52:41;20.70;99.90
9219;DHT22;4644;48.858;9.184;2023-07-28T10:55:11;20.70;99.90
9219;DHT22;4644;48.858;9.184;2023-07-28T10:57:40;20.70;99.90
9219;DHT22;4644;48.858;9.184;2023-07-28T11:00:07;20.70;99.90
9219;DHT22;4644;48.858;9.184;2023-07-28T11:02:36;20.70;99.90
9219;DHT22;4644;48.858;9.184;2023-07-28T11:05:05;20.80;99.90
9219;DHT22;4644;48.858;9.184;2023-07-28T11:07:34;20.80;99.90
9219;DHT22;4644;48.858;9.184;2023-07-28T11:10:01;20.80;99.90
9219;DHT22;4644;48.858;9.184;2023-07-28T11:12:28;20.80;99.90
9219;DHT22;4644;48.858;9.184;2023-07-28T11:14:56;20.80;99.90
9219;DHT22;4644;48.858;9.184;2023-07-28T11:17:23;20.90;99.90
9219;DHT22;4644;48.858;9.184;2023-07-28T11:19:55;21.00;99.90
9219;DHT22;4644;48.858;9.184;2023-07-28T11:22:22;21.20;99.90
9219;DHT22;4644;48.858;9.184;2023-07-28T11:24:51;21.50;99.90
9219;DHT22;4644;48.858;9.184;2023-07-28T11:27:18;21.60;99.90
9219;DHT22;4644;48.858;9.184;2023-07-28T11:29:45;21.80;99.90
9219;DHT22;4644;48.858;9.184;2023-07-28T11:32:15;22.00;99.90
9219;DHT22;4644;48.858;9.184;2023-07-28T11:34:42;22.10;99.90
9219;DHT22;4644;48.858;9.184;2023-07-28T11:37:09;22.30;99.90
9219;DHT22;4644;48.858;9.184;2023-07-28T11:39:37;22.40;99.90
9219;DHT22;4644;48.858;9.184;2023-07-28T11:42:06;22.60;99.90
9219;DHT22;4644;48.858;9.184;2023-07-28T11:44:34;22.90;99.90
9219;DHT22;4644;48.858;9.184;2023-07-28T11:47:05;23.20;99.90
9219;DHT22;4644;48.858;9.184;2023-07-28T11:49:32;23.30;99.90
9219;DHT22;4644;48.858;9.184;2023-07-28T11:51:59;23.10;99.90
9219;DHT22;4644;48.858;9.184;2023-07-28T11:54:26;23.10;99.90
9219;DHT22;4644;48.858;9.184;2023-07-28T11:56:54;23.00;99.90
9219;DHT22;4644;48.858;9.184;2023-07-28T11:59:22;23.00;99.90
9219;DHT22;4644;48.858;9.184;2023-07-28T12:01:53;23.10;99.90
9219;DHT22;4644;48.858;9.184;2023-07-28T12:04:24;23.10;99.90
9219;DHT22;4644;48.858;9.184;2023-07-28T12:07:01;23.10;99.90
9219;DHT22;4644;48.858;9.184;2023-07-28T12:09:30;23.20;99.90
9219;DHT22;4644;48.858;9.184;2023-07-28T12:11:57;23.00;99.90
9219;DHT22;4644;48.858;9.184;2023-07-28T12:14:32;22.80;99.90
9219;DHT22;4644;48.858;9.184;2023-07-28T12:16:59;22.60;99.90
9219;DHT22;4644;48.858;9.184;2023-07-28T12:19:28;22.50;99.90
9219;DHT22;4644;48.858;9.184;2023-07-28T12:21:55;22.30;99.90
9219;DHT22;4644;48.858;9.184;2023-07-28T12:24:22;22.30;99.90
9219;DHT22;4644;48.858;9.184;2023-07-28T12:26:50;22.20;99.90
9219;DHT22;4644;48.858;9.184;2023-07-28T12:29:17;21.90;99.90
9219;DHT22;4644;48.858;9.184;2023-07-28T12:31:45;21.80;99.90
9219;DHT22;4644;48.858;9.184;2023-07-28T12:34:12;21.60;99.90
9219;DHT22;4644;48.858;9.184;2023-07-28T12:36:39;21.50;99.90
9219;DHT22;4644;48.858;9.184;2023-07-28T12:39:06;21.40;99.90
9219;DHT22;4644;48.858;9.184;2023-07-28T12:41:33;21.40;99.90
9219;DHT22;4644;48.858;9.184;2023-07-28T12:44:00;21.40;99.90
9219;DHT22;4644;48.858;9.184;2023-07-28T12:46:27;21.50;99.90
9219;DHT22;4644;48.858;9.184;2023-07-28T12:48:55;21.60;99.90
9219;DHT22;4644;48.858;9.184;2023-07-28T12:51:22;21.70;99.90
9219;DHT22;4644;48.858;9.184;2023-07-28T12:53:49;21.90;99.90
9219;DHT22;4644;48.858;9.184;2023-07-28T12:56:15;22.00;99.90
9219;DHT22;4644;48.858;9.184;2023-07-28T12:58:43;22.10;99.90
9219;DHT22;4644;48.858;9.184;2023-07-28T13:01:10;22.20;99.90
9219;DHT22;4644;48.858;9.184;2023-07-28T13:03:37;22.20;99.90
9219;DHT22;4644;48.858;9.184;2023-07-28T13:06:08;22.10;99.90
9219;DHT22;4644;48.858;9.184;2023-07-28T13:08:35;22.10;99.90
9219;DHT22;4644;48.858;9.184;2023-07-28T13:11:02;22.00;99.90
9219;DHT22;4644;48.858;9.184;2023-07-28T13:13:29;22.00;99.90
9219;DHT22;4644;48.858;9.184;2023-07-28T13:15:56;21.90;99.90
9219;DHT22;4644;48.858;9.184;2023-07-28T13:18:23;21.70;99.90
9219;DHT22;4644;48.858;9.184;2023-07-28T13:20:50;21.60;99.90
9219;DHT22;4644;48.858;9.184;2023-07-28T13:23:18;21.50;99.90
9219;DHT22;4644;48.858;9.184;2023-07-28T13:25:45;21.50;99.90
9219;DHT22;4644;48.858;9.184;2023-07-28T13:28:12;21.40;99.90
9219;DHT22;4644;48.858;9.184;2023-07-28T13:30:39;21.20;99.90
9219;DHT22;4644;48.858;9.184;2023-07-28T13:33:07;20.90;99.90
9219;DHT22;4644;48.858;9.184;2023-07-28T13:35:34;20.70;99.90
9219;DHT22;4644;48.858;9.184;2023-07-28T13:38:00;20.60;99.90
9219;DHT22;4644;48.858;9.184;2023-07-28T13:40:29;20.60;99.90
9219;DHT22;4644;48.858;9.184;2023-07-28T13:42:56;20.60;99.90
9219;DHT22;4644;48.858;9.184;2023-07-28T13:45:22;20.50;99.90
9219;DHT22;4644;48.858;9.184;2023-07-28T13:47:49;20.40;99.90
9219;DHT22;4644;48.858;9.184;2023-07-28T13:50:16;20.30;99.90
9219;DHT22;4644;48.858;9.184;2023-07-28T13:52:43;20.20;99.90
9219;DHT22;4644;48.858;9.184;2023-07-28T13:55:10;20.10;99.90
9219;DHT22;4644;48.858;9.184;2023-07-28T13:57:38;20.00;99.90
9219;DHT22;4644;48.858;9.184;2023-07-28T14:00:06;19.80;99.90
9219;DHT22;4644;48.858;9.184;2023-07-28T14:02:34;19.70;99.90
9219;DHT22;4644;48.858;9.184;2023-07-28T14:05:01;19.60;99.90
9219;DHT22;4644;48.858;9.184;2023-07-28T14:07:28;19.50;99.90
9219;DHT22;4644;48.858;9.184;2023-07-28T14:09:55;19.40;99.90
9219;DHT22;4644;48.858;9.184;2023-07-28T14:12:22;19.20;99.90
9219;DHT22;4644;48.858;9.184;2023-07-28T14:14:50;19.20;99.90
9219;DHT22;4644;48.858;9.184;2023-07-28T14:17:17;19.20;99.90
9219;DHT22;4644;48.858;9.184;2023-07-28T14:19:45;19.10;99.90
9219;DHT22;4644;48.858;9.184;2023-07-28T14:22:12;19.10;99.90
9219;DHT22;4644;48.858;9.184;2023-07-28T14:24:38;19.10;99.90
9219;DHT22;4644;48.858;9.184;2023-07-28T14:27:06;19.10;99.90
9219;DHT22;4644;48.858;9.184;2023-07-28T14:29:33;18.90;99.90
9219;DHT22;4644;48.858;9.184;2023-07-28T14:32:01;18.80;99.90
9219;DHT22;4644;48.858;9.184;2023-07-28T14:34:28;18.70;99.90
9219;DHT22;4644;48.858;9.184;2023-07-28T14:36:55;18.70;99.90
9219;DHT22;4644;48.858;9.184;2023-07-28T14:39:22;18.70;99.90
9219;DHT22;4644;48.858;9.184;2023-07-28T14:41:48;18.70;99.90
9219;DHT22;4644;48.858;9.184;2023-07-28T14:44:15;18.80;99.90
9219;DHT22;4644;48.858;9.184;2023-07-28T14:46:42;18.90;99.90
9219;DHT22;4644;48.858;9.184;2023-07-28T14:49:10;19.00;99.90
9219;DHT22;4644;48.858;9.184;2023-07-28T14:51:37;19.00;99.90
9219;DHT22;4644;48.858;9.184;2023-07-28T14:54:04;19.10;99.90
9219;DHT22;4644;48.858;9.184;2023-07-28T14:56:32;19.10;99.90
9219;DHT22;4644;48.858;9.184;2023-07-28T14:59:00;19.10;99.90
9219;DHT22;4644;48.858;9.184;2023-07-28T15:01:28;19.10;99.90
9219;DHT22;4644;48.858;9.184;2023-07-28T15:03:55;19.00;99.90
9219;DHT22;4644;48.858;9.184;2023-07-28T15:06:23;19.00;99.90
9219;DHT22;4644;48.858;9.184;2023-07-28T15:08:50;19.00;99.90
9219;DHT22;4644;48.858;9.184;2023-07-28T15:11:17;19.10;99.90
9219;DHT22;4644;48.858;9.184;2023-07-28T15:13:44;19.20;99.90
9219;DHT22;4644;48.858;9.184;2023-07-28T15:16:11;19.10;99.90
9219;DHT22;4644;48.858;9.184;2023-07-28T15:18:38;19.20;99.90
9219;DHT22;4644;48.858;9.184;2023-07-28T15:21:06;19.20;99.90
9219;DHT22;4644;48.858;9.184;2023-07-28T15:23:34;19.20;99.90
9219;DHT22;4644;48.858;9.184;2023-07-28T15:26:01;19.20;99.90
9219;DHT22;4644;48.858;9.184;2023-07-28T15:28:28;19.30;99.90
9219;DHT22;4644;48.858;9.184;2023-07-28T15:30:55;19.30;99.90
9219;DHT22;4644;48.858;9.184;2023-07-28T15:33:22;19.40;99.90
9219;DHT22;4644;48.858;9.184;2023-07-28T15:35:50;19.30;99.90
9219;DHT22;4644;48.858;9.184;2023-07-28T15:38:17;19.30;99.90
9219;DHT22;4644;48.858;9.184;2023-07-28T15:40:45;19.30;99.90
9219;DHT22;4644;48.858;9.184;2023-07-28T15:43:12;19.30;99.90
9219;DHT22;4644;48.858;9.184;2023-07-28T15:45:39;19.20;99.90
9219;DHT22;4644;48.858;9.184;2023-07-28T15:48:06;19.20;99.90
9219;DHT22;4644;48.858;9.184;2023-07-28T15:50:33;19.20;99.90
9219;DHT22;4644;48.858;9.184;2023-07-28T15:53:00;19.30;99.90
9219;DHT22;4644;48.858;9.184;2023-07-28T15:55:27;19.30;99.90
9219;DHT22;4644;48.858;9.184;2023-07-28T15:57:55;19.20;99.90
9219;DHT22;4644;48.858;9.184;2023-07-28T16:00:22;19.20;99.90
9219;DHT22;4644;48.858;9.184;2023-07-28T16:02:49;19.20;99.90